sensor_id;sensor_type;location;lat;lon;timestamp;temperature;humidity
72206;DHT22;60111;48.286;7.812;2024-01-25T00:00:46;9.50;87.30
72206;DHT22;60111;48.286;7.812;2024-01-25T00:03:19;9.50;87.40
72206;DHT22;60111;48.286;7.812;2024-01-25T00:05:51;9.50;87.40
72206;DHT22;60111;48.286;7.812;2024-01-25T00:08:24;9.50;87.50
72206;DHT22;60111;48.286;7.812;2024-01-25T00:10:57;9.50;87.50
72206;DHT22;60111;48.286;7.812;2024-01-25T00:13:30;9.60;87.10
72206;DHT22;60111;48.286;7.812;2024-01-25T00:16:03;9.50;87.40
72206;DHT22;60111;48.286;7.812;2024-01-25T00:18:36;9.50;87.40
72206;DHT22;60111;48.286;7.812;2024-01-25T00:21:09;9.50;87.40
72206;DHT22;60111;48.286;7.812;2024-01-25T00:23:41;9.50;87.60
72206;DHT22;60111;48.286;7.812;2024-01-25T00:26:14;9.60;87.50
72206;DHT22;60111;48.286;7.812;2024-01-25T00:28:46;9.60;87.40
72206;DHT22;60111;48.286;7.812;2024-01-25T00:31:19;9.60;87.20
72206;DHT22;60111;48.286;7.812;2024-01-25T00:33:52;9.60;87.00
72206;DHT22;60111;48.286;7.812;2024-01-25T00:36:25;9.60;87.10
72206;DHT22;60111;48.286;7.812;2024-01-25T00:38:58;9.50;87.20
72206;DHT22;60111;48.286;7.812;2024-01-25T00:41:32;9.50;87.20
72206;DHT22;60111;48.286;7.812;2024-01-25T00:44:05;9.50;87.30
72206;DHT22;60111;48.286;7.812;2024-01-25T00:46:39;9.50;87.40
72206;DHT22;60111;48.286;7.812;2024-01-25T00:49:13;9.50;87.40
72206;DHT22;60111;48.286;7.812;2024-01-25T00:51:47;9.50;87.40
72206;DHT22;60111;48.286;7.812;2024-01-25T00:54:20;9.50;87.40
72206;DHT22;60111;48.286;7.812;2024-01-25T00:56:53;9.50;87.60
72206;DHT22;60111;48.286;7.812;2024-01-25T00:59:26;9.50;87.70
72206;DHT22;60111;48.286;7.812;2024-01-25T01:02:00;9.50;87.80
72206;DHT22;60111;48.286;7.812;2024-01-25T01:04:35;9.40;87.70
72206;DHT22;60111;48.286;7.812;2024-01-25T01:07:10;9.40;87.90
72206;DHT22;60111;48.286;7.812;2024-01-25T01:09:42;9.40;88.00
72206;DHT22;60111;48.286;7.812;2024-01-25T01:12:15;9.50;87.70
72206;DHT22;60111;48.286;7.812;2024-01-25T01:14:48;9.60;86.70
72206;DHT22;60111;48.286;7.812;2024-01-25T01:17:20;9.60;86.60
72206;DHT22;60111;48.286;7.812;2024-01-25T01:19:53;9.60;86.40
72206;DHT22;60111;48.286;7.812;2024-01-25T01:22:26;9.50;86.30
72206;DHT22;60111;48.286;7.812;2024-01-25T01:24:58;9.60;85.70
72206;DHT22;60111;48.286;7.812;2024-01-25T01:27:31;9.60;85.40
72206;DHT22;60111;48.286;7.812;2024-01-25T01:30:04;9.60;85.60
72206;DHT22;60111;48.286;7.812;2024-01-25T01:32:39;9.60;85.20
72206;DHT22;60111;48.286;7.812;2024-01-25T01:35:12;9.60;85.20
72206;DHT22;60111;48.286;7.812;2024-01-25T01:37:44;9.50;85.50
72206;DHT22;60111;48.286;7.812;2024-01-25T01:40:17;9.50;85.70
72206;DHT22;60111;48.286;7.812;2024-01-25T01:42:49;9.40;85.90
72206;DHT22;60111;48.286;7.812;2024-01-25T01:45:22;9.40;86.10
72206;DHT22;60111;48.286;7.812;2024-01-25T01:47:56;9.40;86.10
72206;DHT22;60111;48.286;7.812;2024-01-25T01:50:28;9.40;86.10
72206;DHT22;60111;48.286;7.812;2024-01-25T01:53:01;9.40;85.90
72206;DHT22;60111;48.286;7.812;2024-01-25T01:55:33;9.30;85.70
72206;DHT22;60111;48.286;7.812;2024-01-25T01:58:06;9.30;85.60
72206;DHT22;60111;48.286;7.812;2024-01-25T02:00:59;9.30;85.60
72206;DHT22;60111;48.286;7.812;2024-01-25T02:03:32;9.30;85.60
72206;DHT22;60111;48.286;7.812;2024-01-25T02:06:05;9.30;85.40
72206;DHT22;60111;48.286;7.812;2024-01-25T02:08:38;9.40;84.90
72206;DHT22;60111;48.286;7.812;2024-01-25T02:11:12;9.40;84.60
72206;DHT22;60111;48.286;7.812;2024-01-25T02:13:45;9.50;83.80
72206;DHT22;60111;48.286;7.812;2024-01-25T02:16:18;9.50;83.80
72206;DHT22;60111;48.286;7.812;2024-01-25T02:18:51;9.60;83.20
72206;DHT22;60111;48.286;7.812;2024-01-25T02:21:25;9.80;82.50
72206;DHT22;60111;48.286;7.812;2024-01-25T02:23:58;9.80;82.20
72206;DHT22;60111;48.286;7.812;2024-01-25T02:26:31;9.80;82.20
72206;DHT22;60111;48.286;7.812;2024-01-25T02:29:03;9.70;82.50
72206;DHT22;60111;48.286;7.812;2024-01-25T02:31:36;9.70;83.00
72206;DHT22;60111;48.286;7.812;2024-01-25T02:34:10;9.70;83.10
72206;DHT22;60111;48.286;7.812;2024-01-25T02:36:42;9.60;83.30
72206;DHT22;60111;48.286;7.812;2024-01-25T02:39:15;9.60;83.70
72206;DHT22;60111;48.286;7.812;2024-01-25T02:41:47;9.50;84.00
72206;DHT22;60111;48.286;7.812;2024-01-25T02:44:20;9.50;84.30
72206;DHT22;60111;48.286;7.812;2024-01-25T02:46:52;9.50;84.20
72206;DHT22;60111;48.286;7.812;2024-01-25T02:49:25;9.60;83.80
72206;DHT22;60111;48.286;7.812;2024-01-25T02:51:58;9.60;84.00
72206;DHT22;60111;48.286;7.812;2024-01-25T02:54:30;9.60;83.80
72206;DHT22;60111;48.286;7.812;2024-01-25T02:57:05;9.70;84.00
72206;DHT22;60111;48.286;7.812;2024-01-25T02:59:37;9.80;83.90
72206;DHT22;60111;48.286;7.812;2024-01-25T03:02:10;9.80;83.90
72206;DHT22;60111;48.286;7.812;2024-01-25T03:04:42;9.80;83.80
72206;DHT22;60111;48.286;7.812;2024-01-25T03:07:15;9.80;83.90
72206;DHT22;60111;48.286;7.812;2024-01-25T03:09:47;9.80;83.80
72206;DHT22;60111;48.286;7.812;2024-01-25T03:12:20;9.80;83.90
72206;DHT22;60111;48.286;7.812;2024-01-25T03:14:53;9.80;83.80
72206;DHT22;60111;48.286;7.812;2024-01-25T03:17:26;9.70;84.10
72206;DHT22;60111;48.286;7.812;2024-01-25T03:19:58;9.60;84.60
72206;DHT22;60111;48.286;7.812;2024-01-25T03:22:31;9.50;85.10
72206;DHT22;60111;48.286;7.812;2024-01-25T03:25:04;9.50;85.10
72206;DHT22;60111;48.286;7.812;2024-01-25T03:27:36;9.50;85.10
72206;DHT22;60111;48.286;7.812;2024-01-25T03:30:10;9.40;85.70
72206;DHT22;60111;48.286;7.812;2024-01-25T03:32:43;9.40;85.80
72206;DHT22;60111;48.286;7.812;2024-01-25T03:35:16;9.40;86.10
72206;DHT22;60111;48.286;7.812;2024-01-25T03:37:48;9.30;86.20
72206;DHT22;60111;48.286;7.812;2024-01-25T03:40:21;9.30;86.40
72206;DHT22;60111;48.286;7.812;2024-01-25T03:42:54;9.20;86.60
72206;DHT22;60111;48.286;7.812;2024-01-25T03:45:26;9.20;86.70
72206;DHT22;60111;48.286;7.812;2024-01-25T03:47:59;9.20;86.80
72206;DHT22;60111;48.286;7.812;2024-01-25T03:50:32;9.10;87.00
72206;DHT22;60111;48.286;7.812;2024-01-25T03:53:04;9.10;87.10
72206;DHT22;60111;48.286;7.812;2024-01-25T03:55:38;9.10;87.30
72206;DHT22;60111;48.286;7.812;2024-01-25T03:58:12;9.00;87.50
72206;DHT22;60111;48.286;7.812;2024-01-25T04:00:44;9.00;87.70
72206;DHT22;60111;48.286;7.812;2024-01-25T04:03:17;9.00;88.00
72206;DHT22;60111;48.286;7.812;2024-01-25T04:05:49;9.00;87.90
72206;DHT22;60111;48.286;7.812;2024-01-25T04:08:22;9.00;88.00
72206;DHT22;60111;48.286;7.812;2024-01-25T04:10:54;9.00;88.20
72206;DHT22;60111;48.286;7.812;2024-01-25T04:13:27;9.00;88.20
72206;DHT22;60111;48.286;7.812;2024-01-25T04:16:00;9.00;88.00
72206;DHT22;60111;48.286;7.812;2024-01-25T04:18:33;9.00;88.10
72206;DHT22;60111;48.286;7.812;2024-01-25T04:21:05;9.00;88.30
72206;DHT22;60111;48.286;7.812;2024-01-25T04:23:38;8.90;88.60
72206;DHT22;60111;48.286;7.812;2024-01-25T04:26:10;8.90;88.80
72206;DHT22;60111;48.286;7.812;2024-01-25T04:28:43;8.90;88.90
72206;DHT22;60111;48.286;7.812;2024-01-25T04:31:16;8.90;89.30
72206;DHT22;60111;48.286;7.812;2024-01-25T04:33:48;8.90;89.20
72206;DHT22;60111;48.286;7.812;2024-01-25T04:36:21;8.80;89.60
72206;DHT22;60111;48.286;7.812;2024-01-25T04:38:53;8.80;90.10
72206;DHT22;60111;48.286;7.812;2024-01-25T04:41:26;8.70;90.30
72206;DHT22;60111;48.286;7.812;2024-01-25T04:43:58;8.70;90.50
72206;DHT22;60111;48.286;7.812;2024-01-25T04:46:31;8.70;90.80
72206;DHT22;60111;48.286;7.812;2024-01-25T04:49:08;8.60;91.00
72206;DHT22;60111;48.286;7.812;2024-01-25T04:51:41;8.60;91.20
72206;DHT22;60111;48.286;7.812;2024-01-25T04:54:14;8.60;91.30
72206;DHT22;60111;48.286;7.812;2024-01-25T04:56:46;8.60;91.40
72206;DHT22;60111;48.286;7.812;2024-01-25T04:59:19;8.70;91.40
72206;DHT22;60111;48.286;7.812;2024-01-25T05:01:52;8.70;91.40
72206;DHT22;60111;48.286;7.812;2024-01-25T05:04:26;8.60;91.50
72206;DHT22;60111;48.286;7.812;2024-01-25T05:07:00;8.60;91.70
72206;DHT22;60111;48.286;7.812;2024-01-25T05:09:33;8.60;91.80
72206;DHT22;60111;48.286;7.812;2024-01-25T05:12:06;8.60;91.90
72206;DHT22;60111;48.286;7.812;2024-01-25T05:14:38;8.60;91.90
72206;DHT22;60111;48.286;7.812;2024-01-25T05:17:11;8.60;91.80
72206;DHT22;60111;48.286;7.812;2024-01-25T05:19:44;8.60;91.60
72206;DHT22;60111;48.286;7.812;2024-01-25T05:22:16;8.60;91.40
72206;DHT22;60111;48.286;7.812;2024-01-25T05:24:49;8.60;91.30
72206;DHT22;60111;48.286;7.812;2024-01-25T05:27:21;8.60;91.40
72206;DHT22;60111;48.286;7.812;2024-01-25T05:29:55;8.60;91.30
72206;DHT22;60111;48.286;7.812;2024-01-25T05:32:27;8.60;91.40
72206;DHT22;60111;48.286;7.812;2024-01-25T05:35:00;8.60;91.50
72206;DHT22;60111;48.286;7.812;2024-01-25T05:37:33;8.60;91.50
72206;DHT22;60111;48.286;7.812;2024-01-25T05:40:08;8.50;91.50
72206;DHT22;60111;48.286;7.812;2024-01-25T05:42:41;8.60;91.30
72206;DHT22;60111;48.286;7.812;2024-01-25T05:45:14;8.60;91.30
72206;DHT22;60111;48.286;7.812;2024-01-25T05:47:47;8.60;91.30
72206;DHT22;60111;48.286;7.812;2024-01-25T05:50:20;8.60;91.00
72206;DHT22;60111;48.286;7.812;2024-01-25T05:52:52;8.50;91.20
72206;DHT22;60111;48.286;7.812;2024-01-25T05:55:25;8.50;91.30
72206;DHT22;60111;48.286;7.812;2024-01-25T05:57:57;8.50;91.30
72206;DHT22;60111;48.286;7.812;2024-01-25T06:00:30;8.50;91.40
72206;DHT22;60111;48.286;7.812;2024-01-25T06:03:03;8.50;91.50
72206;DHT22;60111;48.286;7.812;2024-01-25T06:05:36;8.40;91.60
72206;DHT22;60111;48.286;7.812;2024-01-25T06:08:09;8.50;91.20
72206;DHT22;60111;48.286;7.812;2024-01-25T06:10:41;8.60;91.00
72206;DHT22;60111;48.286;7.812;2024-01-25T06:13:14;8.70;90.60
72206;DHT22;60111;48.286;7.812;2024-01-25T06:15:47;8.60;90.00
72206;DHT22;60111;48.286;7.812;2024-01-25T06:18:20;8.70;89.90
72206;DHT22;60111;48.286;7.812;2024-01-25T06:20:52;8.60;90.10
72206;DHT22;60111;48.286;7.812;2024-01-25T06:23:25;8.50;90.40
72206;DHT22;60111;48.286;7.812;2024-01-25T06:25:57;8.40;90.80
72206;DHT22;60111;48.286;7.812;2024-01-25T06:28:30;8.50;91.00
72206;DHT22;60111;48.286;7.812;2024-01-25T06:31:02;8.50;90.90
72206;DHT22;60111;48.286;7.812;2024-01-25T06:33:35;8.40;91.10
72206;DHT22;60111;48.286;7.812;2024-01-25T06:36:08;8.40;91.40
72206;DHT22;60111;48.286;7.812;2024-01-25T06:38:40;8.50;91.10
72206;DHT22;60111;48.286;7.812;2024-01-25T06:41:13;8.50;90.90
72206;DHT22;60111;48.286;7.812;2024-01-25T06:43:49;8.40;91.00
72206;DHT22;60111;48.286;7.812;2024-01-25T06:46:23;8.40;91.20
72206;DHT22;60111;48.286;7.812;2024-01-25T06:48:56;8.30;91.30
72206;DHT22;60111;48.286;7.812;2024-01-25T06:51:29;8.30;91.50
72206;DHT22;60111;48.286;7.812;2024-01-25T06:54:02;8.30;91.60
72206;DHT22;60111;48.286;7.812;2024-01-25T06:56:35;8.30;91.60
72206;DHT22;60111;48.286;7.812;2024-01-25T06:59:07;8.30;91.60
72206;DHT22;60111;48.286;7.812;2024-01-25T07:01:40;8.40;91.40
72206;DHT22;60111;48.286;7.812;2024-01-25T07:04:13;8.30;91.10
72206;DHT22;60111;48.286;7.812;2024-01-25T07:06:46;8.30;91.30
72206;DHT22;60111;48.286;7.812;2024-01-25T07:09:18;8.30;91.20
72206;DHT22;60111;48.286;7.812;2024-01-25T07:11:51;8.30;91.30
72206;DHT22;60111;48.286;7.812;2024-01-25T07:14:23;8.30;91.50
72206;DHT22;60111;48.286;7.812;2024-01-25T07:16:56;8.20;91.80
72206;DHT22;60111;48.286;7.812;2024-01-25T07:19:29;8.20;92.00
72206;DHT22;60111;48.286;7.812;2024-01-25T07:22:01;8.10;92.10
72206;DHT22;60111;48.286;7.812;2024-01-25T07:24:34;8.20;92.20
72206;DHT22;60111;48.286;7.812;2024-01-25T07:27:06;8.20;92.00
72206;DHT22;60111;48.286;7.812;2024-01-25T07:29:39;8.20;92.20
72206;DHT22;60111;48.286;7.812;2024-01-25T07:32:12;8.10;92.40
72206;DHT22;60111;48.286;7.812;2024-01-25T07:34:45;8.10;92.60
72206;DHT22;60111;48.286;7.812;2024-01-25T07:37:18;8.10;92.70
72206;DHT22;60111;48.286;7.812;2024-01-25T07:39:50;8.10;92.80
72206;DHT22;60111;48.286;7.812;2024-01-25T07:42:23;8.10;92.90
72206;DHT22;60111;48.286;7.812;2024-01-25T07:44:55;8.10;93.00
72206;DHT22;60111;48.286;7.812;2024-01-25T07:47:28;8.20;92.90
72206;DHT22;60111;48.286;7.812;2024-01-25T07:50:01;8.10;93.00
72206;DHT22;60111;48.286;7.812;2024-01-25T07:52:34;8.10;93.20
72206;DHT22;60111;48.286;7.812;2024-01-25T07:55:08;8.10;93.20
72206;DHT22;60111;48.286;7.812;2024-01-25T07:57:40;8.10;93.20
72206;DHT22;60111;48.286;7.812;2024-01-25T08:00:13;8.10;93.20
72206;DHT22;60111;48.286;7.812;2024-01-25T08:02:46;8.10;93.30
72206;DHT22;60111;48.286;7.812;2024-01-25T08:05:19;8.20;93.30
72206;DHT22;60111;48.286;7.812;2024-01-25T08:07:51;8.20;93.20
72206;DHT22;60111;48.286;7.812;2024-01-25T08:10:24;8.30;93.20
72206;DHT22;60111;48.286;7.812;2024-01-25T08:12:56;8.30;93.00
72206;DHT22;60111;48.286;7.812;2024-01-25T08:15:30;8.30;92.80
72206;DHT22;60111;48.286;7.812;2024-01-25T08:18:04;8.50;92.00
72206;DHT22;60111;48.286;7.812;2024-01-25T08:20:37;8.50;91.60
72206;DHT22;60111;48.286;7.812;2024-01-25T08:23:10;8.50;91.40
72206;DHT22;60111;48.286;7.812;2024-01-25T08:25:43;8.50;91.30
72206;DHT22;60111;48.286;7.812;2024-01-25T08:28:15;8.50;91.30
72206;DHT22;60111;48.286;7.812;2024-01-25T08:30:48;8.50;91.50
72206;DHT22;60111;48.286;7.812;2024-01-25T08:33:21;8.40;91.70
72206;DHT22;60111;48.286;7.812;2024-01-25T08:35:55;8.40;91.80
72206;DHT22;60111;48.286;7.812;2024-01-25T08:38:27;8.50;91.90
72206;DHT22;60111;48.286;7.812;2024-01-25T08:41:00;8.50;91.70
72206;DHT22;60111;48.286;7.812;2024-01-25T08:43:32;8.50;91.70
72206;DHT22;60111;48.286;7.812;2024-01-25T08:46:06;8.50;91.70
72206;DHT22;60111;48.286;7.812;2024-01-25T08:48:43;8.50;91.70
72206;DHT22;60111;48.286;7.812;2024-01-25T08:51:16;8.60;91.70
72206;DHT22;60111;48.286;7.812;2024-01-25T08:53:49;8.60;91.60
72206;DHT22;60111;48.286;7.812;2024-01-25T08:56:22;8.60;91.50
72206;DHT22;60111;48.286;7.812;2024-01-25T08:58:55;8.60;91.50
72206;DHT22;60111;48.286;7.812;2024-01-25T09:01:28;8.70;91.10
72206;DHT22;60111;48.286;7.812;2024-01-25T09:04:00;8.70;90.80
72206;DHT22;60111;48.286;7.812;2024-01-25T09:06:34;8.70;90.60
72206;DHT22;60111;48.286;7.812;2024-01-25T09:09:06;8.70;90.40
72206;DHT22;60111;48.286;7.812;2024-01-25T09:11:40;8.70;90.60
72206;DHT22;60111;48.286;7.812;2024-01-25T09:14:12;8.70;90.70
72206;DHT22;60111;48.286;7.812;2024-01-25T09:16:45;8.70;90.80
72206;DHT22;60111;48.286;7.812;2024-01-25T09:19:17;8.70;90.80
72206;DHT22;60111;48.286;7.812;2024-01-25T09:21:50;8.70;91.00
72206;DHT22;60111;48.286;7.812;2024-01-25T09:24:23;8.70;91.10
72206;DHT22;60111;48.286;7.812;2024-01-25T09:26:55;8.80;91.20
72206;DHT22;60111;48.286;7.812;2024-01-25T09:32:21;8.80;91.20
72206;DHT22;60111;48.286;7.812;2024-01-25T09:34:54;8.90;91.40
72206;DHT22;60111;48.286;7.812;2024-01-25T09:37:26;9.00;91.10
72206;DHT22;60111;48.286;7.812;2024-01-25T09:39:59;9.00;91.00
72206;DHT22;60111;48.286;7.812;2024-01-25T09:42:32;9.00;91.10
72206;DHT22;60111;48.286;7.812;2024-01-25T09:45:06;9.00;91.10
72206;DHT22;60111;48.286;7.812;2024-01-25T09:47:40;9.00;90.80
72206;DHT22;60111;48.286;7.812;2024-01-25T09:50:12;9.10;90.80
72206;DHT22;60111;48.286;7.812;2024-01-25T09:53:20;9.10;90.90
72206;DHT22;60111;48.286;7.812;2024-01-25T09:55:53;9.20;91.00
72206;DHT22;60111;48.286;7.812;2024-01-25T09:58:23;9.20;91.10
72206;DHT22;60111;48.286;7.812;2024-01-25T10:00:57;9.20;91.30
72206;DHT22;60111;48.286;7.812;2024-01-25T10:03:30;9.30;91.30
72206;DHT22;60111;48.286;7.812;2024-01-25T10:06:02;9.30;90.70
72206;DHT22;60111;48.286;7.812;2024-01-25T10:08:35;9.30;90.30
72206;DHT22;60111;48.286;7.812;2024-01-25T10:11:08;9.40;89.50
72206;DHT22;60111;48.286;7.812;2024-01-25T10:13:43;9.50;88.90
72206;DHT22;60111;48.286;7.812;2024-01-25T10:16:17;9.50;89.00
72206;DHT22;60111;48.286;7.812;2024-01-25T10:18:50;9.40;89.30
72206;DHT22;60111;48.286;7.812;2024-01-25T10:21:24;9.40;89.60
72206;DHT22;60111;48.286;7.812;2024-01-25T10:23:57;9.40;89.60
72206;DHT22;60111;48.286;7.812;2024-01-25T10:26:29;9.40;89.30
72206;DHT22;60111;48.286;7.812;2024-01-25T10:29:02;9.50;89.20
72206;DHT22;60111;48.286;7.812;2024-01-25T10:31:39;9.50;89.30
72206;DHT22;60111;48.286;7.812;2024-01-25T10:34:14;9.50;89.10
72206;DHT22;60111;48.286;7.812;2024-01-25T10:36:46;9.50;89.30
72206;DHT22;60111;48.286;7.812;2024-01-25T10:39:21;9.60;88.60
72206;DHT22;60111;48.286;7.812;2024-01-25T10:41:53;9.60;88.50
72206;DHT22;60111;48.286;7.812;2024-01-25T10:44:26;9.60;88.20
72206;DHT22;60111;48.286;7.812;2024-01-25T10:46:59;9.60;88.60
72206;DHT22;60111;48.286;7.812;2024-01-25T10:49:33;9.60;88.20
72206;DHT22;60111;48.286;7.812;2024-01-25T10:52:06;9.50;88.10
72206;DHT22;60111;48.286;7.812;2024-01-25T10:54:39;9.50;88.30
72206;DHT22;60111;48.286;7.812;2024-01-25T10:57:12;9.50;88.40
72206;DHT22;60111;48.286;7.812;2024-01-25T10:59:46;9.50;88.50
72206;DHT22;60111;48.286;7.812;2024-01-25T11:02:19;9.50;88.50
72206;DHT22;60111;48.286;7.812;2024-01-25T11:04:55;9.50;88.60
72206;DHT22;60111;48.286;7.812;2024-01-25T11:07:27;9.60;88.20
72206;DHT22;60111;48.286;7.812;2024-01-25T11:10:01;9.60;88.20
72206;DHT22;60111;48.286;7.812;2024-01-25T11:12:34;9.50;88.50
72206;DHT22;60111;48.286;7.812;2024-01-25T11:15:07;9.60;88.80
72206;DHT22;60111;48.286;7.812;2024-01-25T11:17:40;9.60;88.60
72206;DHT22;60111;48.286;7.812;2024-01-25T11:20:13;9.60;88.30
72206;DHT22;60111;48.286;7.812;2024-01-25T11:22:46;9.60;88.40
72206;DHT22;60111;48.286;7.812;2024-01-25T11:25:22;9.60;89.20
72206;DHT22;60111;48.286;7.812;2024-01-25T11:27:55;9.60;89.50
72206;DHT22;60111;48.286;7.812;2024-01-25T11:30:33;9.60;89.60
72206;DHT22;60111;48.286;7.812;2024-01-25T11:33:09;9.50;89.30
72206;DHT22;60111;48.286;7.812;2024-01-25T11:35:43;9.60;89.40
72206;DHT22;60111;48.286;7.812;2024-01-25T11:38:15;9.60;89.10
72206;DHT22;60111;48.286;7.812;2024-01-25T11:40:48;9.60;88.90
72206;DHT22;60111;48.286;7.812;2024-01-25T11:43:20;9.70;89.10
72206;DHT22;60111;48.286;7.812;2024-01-25T11:45:54;9.70;89.20
72206;DHT22;60111;48.286;7.812;2024-01-25T11:48:27;9.70;89.00
72206;DHT22;60111;48.286;7.812;2024-01-25T11:51:03;9.80;88.20
72206;DHT22;60111;48.286;7.812;2024-01-25T11:53:35;10.00;87.20
72206;DHT22;60111;48.286;7.812;2024-01-25T11:56:15;10.00;87.50
72206;DHT22;60111;48.286;7.812;2024-01-25T11:58:45;9.90;87.50
72206;DHT22;60111;48.286;7.812;2024-01-25T12:01:17;9.90;87.90
72206;DHT22;60111;48.286;7.812;2024-01-25T12:03:51;9.90;88.20
72206;DHT22;60111;48.286;7.812;2024-01-25T12:06:24;9.90;88.30
72206;DHT22;60111;48.286;7.812;2024-01-25T12:09:07;9.90;88.30
72206;DHT22;60111;48.286;7.812;2024-01-25T12:11:43;9.90;88.20
72206;DHT22;60111;48.286;7.812;2024-01-25T12:14:17;9.90;88.30
72206;DHT22;60111;48.286;7.812;2024-01-25T12:16:49;9.90;88.40
72206;DHT22;60111;48.286;7.812;2024-01-25T12:19:24;10.00;87.90
72206;DHT22;60111;48.286;7.812;2024-01-25T12:21:56;9.90;88.10
72206;DHT22;60111;48.286;7.812;2024-01-25T12:24:31;10.00;88.10
72206;DHT22;60111;48.286;7.812;2024-01-25T12:27:04;9.90;87.80
72206;DHT22;60111;48.286;7.812;2024-01-25T12:29:36;9.90;87.90
72206;DHT22;60111;48.286;7.812;2024-01-25T12:32:10;10.00;87.90
72206;DHT22;60111;48.286;7.812;2024-01-25T12:34:52;9.90;87.90
72206;DHT22;60111;48.286;7.812;2024-01-25T12:37:17;10.00;87.90
72206;DHT22;60111;48.286;7.812;2024-01-25T12:39:51;10.00;87.50
72206;DHT22;60111;48.286;7.812;2024-01-25T12:42:24;10.00;87.60
72206;DHT22;60111;48.286;7.812;2024-01-25T12:44:56;10.00;87.70
72206;DHT22;60111;48.286;7.812;2024-01-25T12:47:29;10.00;87.80
72206;DHT22;60111;48.286;7.812;2024-01-25T12:50:01;10.00;87.60
72206;DHT22;60111;48.286;7.812;2024-01-25T12:52:34;10.00;87.80
72206;DHT22;60111;48.286;7.812;2024-01-25T12:55:07;10.00;87.90
72206;DHT22;60111;48.286;7.812;2024-01-25T12:57:40;10.00;87.60
72206;DHT22;60111;48.286;7.812;2024-01-25T13:00:13;10.00;87.80
72206;DHT22;60111;48.286;7.812;2024-01-25T13:02:46;10.00;88.10
72206;DHT22;60111;48.286;7.812;2024-01-25T13:05:20;10.00;88.30
72206;DHT22;60111;48.286;7.812;2024-01-25T13:07:53;10.00;88.50
72206;DHT22;60111;48.286;7.812;2024-01-25T13:10:25;10.00;88.60
72206;DHT22;60111;48.286;7.812;2024-01-25T13:12:58;10.10;88.20
72206;DHT22;60111;48.286;7.812;2024-01-25T13:15:31;10.20;88.00
72206;DHT22;60111;48.286;7.812;2024-01-25T13:18:04;10.20;87.60
72206;DHT22;60111;48.286;7.812;2024-01-25T13:20:36;10.30;87.50
72206;DHT22;60111;48.286;7.812;2024-01-25T13:23:09;10.20;87.90
72206;DHT22;60111;48.286;7.812;2024-01-25T13:25:41;10.30;87.50
72206;DHT22;60111;48.286;7.812;2024-01-25T13:28:14;10.30;87.90
72206;DHT22;60111;48.286;7.812;2024-01-25T13:30:46;10.30;88.20
72206;DHT22;60111;48.286;7.812;2024-01-25T13:33:19;10.20;88.50
72206;DHT22;60111;48.286;7.812;2024-01-25T13:35:52;10.30;87.60
72206;DHT22;60111;48.286;7.812;2024-01-25T13:38:24;10.30;87.70
72206;DHT22;60111;48.286;7.812;2024-01-25T13:40:57;10.30;88.10
72206;DHT22;60111;48.286;7.812;2024-01-25T13:43:29;10.30;87.80
72206;DHT22;60111;48.286;7.812;2024-01-25T13:46:02;10.30;88.20
72206;DHT22;60111;48.286;7.812;2024-01-25T13:48:35;10.30;88.20
72206;DHT22;60111;48.286;7.812;2024-01-25T13:51:07;10.40;88.20
72206;DHT22;60111;48.286;7.812;2024-01-25T13:53:40;10.40;88.20
72206;DHT22;60111;48.286;7.812;2024-01-25T13:56:13;10.40;88.10
72206;DHT22;60111;48.286;7.812;2024-01-25T13:58:45;10.40;87.80
72206;DHT22;60111;48.286;7.812;2024-01-25T14:01:19;10.40;87.60
72206;DHT22;60111;48.286;7.812;2024-01-25T14:03:52;10.40;87.70
72206;DHT22;60111;48.286;7.812;2024-01-25T14:06:24;10.40;87.60
72206;DHT22;60111;48.286;7.812;2024-01-25T14:08:57;10.40;87.10
72206;DHT22;60111;48.286;7.812;2024-01-25T14:11:29;10.50;87.00
72206;DHT22;60111;48.286;7.812;2024-01-25T14:14:23;10.50;87.00
72206;DHT22;60111;48.286;7.812;2024-01-25T14:16:56;10.40;87.20
72206;DHT22;60111;48.286;7.812;2024-01-25T14:19:29;10.40;87.50
72206;DHT22;60111;48.286;7.812;2024-01-25T14:22:02;10.40;87.60
72206;DHT22;60111;48.286;7.812;2024-01-25T14:24:34;10.50;87.90
72206;DHT22;60111;48.286;7.812;2024-01-25T14:27:07;10.50;87.70
72206;DHT22;60111;48.286;7.812;2024-01-25T14:29:40;10.50;88.10
72206;DHT22;60111;48.286;7.812;2024-01-25T14:32:13;10.60;88.10
72206;DHT22;60111;48.286;7.812;2024-01-25T14:34:46;10.60;88.20
72206;DHT22;60111;48.286;7.812;2024-01-25T14:37:19;10.60;88.10
72206;DHT22;60111;48.286;7.812;2024-01-25T14:39:51;10.70;87.90
72206;DHT22;60111;48.286;7.812;2024-01-25T14:42:24;10.70;87.40
72206;DHT22;60111;48.286;7.812;2024-01-25T14:44:56;10.70;86.90
72206;DHT22;60111;48.286;7.812;2024-01-25T14:47:29;10.70;86.80
72206;DHT22;60111;48.286;7.812;2024-01-25T14:50:02;10.70;86.90
72206;DHT22;60111;48.286;7.812;2024-01-25T14:52:35;10.70;87.10
72206;DHT22;60111;48.286;7.812;2024-01-25T14:55:08;10.70;87.30
72206;DHT22;60111;48.286;7.812;2024-01-25T14:57:40;10.70;87.20
72206;DHT22;60111;48.286;7.812;2024-01-25T15:00:14;10.70;86.60
72206;DHT22;60111;48.286;7.812;2024-01-25T15:02:48;10.80;86.50
72206;DHT22;60111;48.286;7.812;2024-01-25T15:05:21;10.80;86.20
72206;DHT22;60111;48.286;7.812;2024-01-25T15:07:54;10.90;85.70
72206;DHT22;60111;48.286;7.812;2024-01-25T15:10:26;10.80;85.70
72206;DHT22;60111;48.286;7.812;2024-01-25T15:12:59;10.80;86.00
72206;DHT22;60111;48.286;7.812;2024-01-25T15:15:31;10.70;86.30
72206;DHT22;60111;48.286;7.812;2024-01-25T15:18:04;10.70;86.60
72206;DHT22;60111;48.286;7.812;2024-01-25T15:20:37;10.70;86.50
72206;DHT22;60111;48.286;7.812;2024-01-25T15:23:09;10.70;86.70
72206;DHT22;60111;48.286;7.812;2024-01-25T15:25:43;10.60;86.60
72206;DHT22;60111;48.286;7.812;2024-01-25T15:28:16;10.70;86.50
72206;DHT22;60111;48.286;7.812;2024-01-25T15:30:48;10.60;86.60
72206;DHT22;60111;48.286;7.812;2024-01-25T15:33:21;10.70;86.60
72206;DHT22;60111;48.286;7.812;2024-01-25T15:35:54;10.70;86.80
72206;DHT22;60111;48.286;7.812;2024-01-25T15:38:27;10.70;86.70
72206;DHT22;60111;48.286;7.812;2024-01-25T15:40:59;10.70;86.70
72206;DHT22;60111;48.286;7.812;2024-01-25T15:43:32;10.60;86.60
72206;DHT22;60111;48.286;7.812;2024-01-25T15:46:06;10.60;87.10
72206;DHT22;60111;48.286;7.812;2024-01-25T15:48:39;10.50;87.40
72206;DHT22;60111;48.286;7.812;2024-01-25T15:51:12;10.50;87.40
72206;DHT22;60111;48.286;7.812;2024-01-25T15:53:45;10.40;87.70
72206;DHT22;60111;48.286;7.812;2024-01-25T15:56:18;10.40;88.00
72206;DHT22;60111;48.286;7.812;2024-01-25T15:58:50;10.30;88.20
72206;DHT22;60111;48.286;7.812;2024-01-25T16:01:24;10.30;88.20
72206;DHT22;60111;48.286;7.812;2024-01-25T16:03:56;10.30;88.20
72206;DHT22;60111;48.286;7.812;2024-01-25T16:06:29;10.30;88.30
72206;DHT22;60111;48.286;7.812;2024-01-25T16:09:03;10.30;88.50
72206;DHT22;60111;48.286;7.812;2024-01-25T16:11:35;10.20;88.60
72206;DHT22;60111;48.286;7.812;2024-01-25T16:14:08;10.20;88.80
72206;DHT22;60111;48.286;7.812;2024-01-25T16:16:40;10.20;89.00
72206;DHT22;60111;48.286;7.812;2024-01-25T16:19:13;10.20;89.20
72206;DHT22;60111;48.286;7.812;2024-01-25T16:22:20;10.10;89.30